Time;durP1;ratioP1;P1;durP2;ratioP2;P2;SDS_P1;SDS_P2;PMS_P1;PMS_P2;Temp;Humidity;BMP_temperature;BMP_pressure;BME280_temperature;BME280_humidity;BME280_pressure;Samples;Min_cycle;Max_cycle;Signal;HPM_P1;HPM_P2
2022/01/01 00:00:02;;;;;;;108.18;79.35;;;;;;;25.28;40.65;101930.56;5004057;28;20029;-43
2022/01/01 00:02:30;;;;;;;109.80;77.72;;;;;;;25.40;40.34;101924.72;5003986;28;21255;-43
2022/01/01 00:04:58;;;;;;;115.50;80.22;;;;;;;25.38;40.65;101922.06;5004189;28;20034;-45
2022/01/01 00:07:26;;;;;;;120.97;87.13;;;;;;;25.36;40.75;101921.16;5003585;28;20038;-43
2022/01/01 00:09:55;;;;;;;134.00;93.25;;;;;;;25.36;40.77;101909.72;5003804;28;20038;-43
2022/01/01 00:12:23;;;;;;;148.25;99.13;;;;;;;25.41;40.55;101911.59;5004163;28;20030;-45
2022/01/01 00:14:52;;;;;;;146.63;103.75;;;;;;;25.46;40.47;101904.75;5003824;28;20109;-43
2022/01/01 00:17:20;;;;;;;155.52;105.45;;;;;;;25.40;40.65;101901.94;5004066;28;20026;-44
2022/01/01 00:19:49;;;;;;;149.32;103.45;;;;;;;25.37;40.77;101907.16;5003990;28;20088;-43
2022/01/01 00:22:18;;;;;;;168.38;112.75;;;;;;;25.36;40.86;101908.00;5003946;28;20391;-43
2022/01/01 00:24:46;;;;;;;159.63;113.72;;;;;;;25.14;41.11;101910.16;5007689;28;20060;-43
2022/01/01 00:27:15;;;;;;;177.07;123.38;;;;;;;25.07;41.38;101912.59;5006424;28;20037;-44
2022/01/01 00:29:44;;;;;;;192.15;128.80;;;;;;;25.13;41.44;101912.75;5007874;28;20403;-43
2022/01/01 00:32:12;;;;;;;190.20;130.93;;;;;;;25.09;41.72;101910.91;5008076;28;20510;-44
2022/01/01 00:34:40;;;;;;;196.80;138.05;;;;;;;25.03;41.80;101894.13;5007656;28;20040;-43
2022/01/01 00:37:09;;;;;;;214.60;147.50;;;;;;;25.19;41.50;101897.13;5007815;28;20125;-44
2022/01/01 00:39:38;;;;;;;214.10;147.57;;;;;;;25.17;41.54;101897.09;5006310;28;20112;-44
2022/01/01 00:42:06;;;;;;;223.25;152.70;;;;;;;25.14;41.47;101894.38;5007135;28;20038;-44
2022/01/01 00:44:35;;;;;;;214.90;151.13;;;;;;;25.17;41.47;101904.06;5006712;28;20037;-44
2022/01/01 00:47:03;;;;;;;229.40;158.65;;;;;;;25.20;41.42;101892.75;5007217;28;20380;-44
2022/01/01 00:49:31;;;;;;;231.43;162.00;;;;;;;25.13;42.00;101892.63;5007874;28;20083;-47
2022/01/01 00:52:00;;;;;;;227.52;158.18;;;;;;;25.06;41.92;101888.09;5007188;28;20033;-44
2022/01/01 00:54:29;;;;;;;231.05;161.80;;;;;;;25.06;41.61;101895.97;5007471;28;20037;-44
2022/01/01 00:56:57;;;;;;;246.48;166.25;;;;;;;25.10;42.00;101894.28;5006980;28;20061;-44
2022/01/01 00:59:28;;;;;;;247.63;176.93;;;;;;;25.12;42.00;101896.09;5006910;28;20483;-44
2022/01/01 01:01:56;;;;;;;246.20;173.10;;;;;;;25.14;41.69;101886.50;5007029;28;20058;-44
2022/01/01 01:04:25;;;;;;;251.38;179.10;;;;;;;25.03;41.98;101890.66;5005825;28;20113;-44
2022/01/01 01:06:54;;;;;;;252.65;182.75;;;;;;;25.10;41.96;101884.66;5007313;28;20037;-44
2022/01/01 01:09:23;;;;;;;262.60;188.60;;;;;;;25.07;42.32;101881.09;5007357;28;20116;-43
2022/01/01 01:11:52;;;;;;;255.20;186.52;;;;;;;24.95;42.34;101874.72;5006824;28;20535;-44
2022/01/01 01:14:22;;;;;;;265.58;191.65;;;;;;;24.97;42.25;101875.63;5005546;28;20395;-44
2022/01/01 01:16:52;;;;;;;281.63;197.57;;;;;;;24.96;42.50;101875.59;5006959;28;20065;-44
2022/01/01 01:19:21;;;;;;;262.08;192.85;;;;;;;25.07;42.14;101874.09;5007108;28;20033;-44
2022/01/01 01:21:51;;;;;;;270.63;194.93;;;;;;;24.98;42.42;101866.91;5006496;28;20121;-44
2022/01/01 01:24:23;;;;;;;265.75;193.30;;;;;;;25.06;42.32;101868.81;5006545;28;20029;-43
2022/01/01 01:26:52;;;;;;;276.95;201.30;;;;;;;25.03;42.08;101867.00;5006577;28;20040;-44
2022/01/01 01:29:21;;;;;;;283.23;203.27;;;;;;;25.02;42.52;101868.72;5006974;28;20033;-43
2022/01/01 01:31:50;;;;;;;285.38;204.85;;;;;;;25.08;42.10;101851.34;5006629;28;20040;-44
2022/01/01 01:34:18;;;;;;;278.80;204.80;;;;;;;25.01;42.47;101845.09;5005460;28;20407;-44
2022/01/01 01:36:47;;;;;;;274.17;203.10;;;;;;;24.97;42.06;101862.50;5006273;28;20030;-44
2022/01/01 01:39:15;;;;;;;285.17;208.38;;;;;;;24.98;42.17;101861.66;5006810;28;20852;-43
2022/01/01 01:41:45;;;;;;;288.65;213.95;;;;;;;24.92;42.45;101857.97;5006632;28;20099;-44
2022/01/01 01:44:35;;;;;;;283.73;209.50;;;;;;;24.95;42.41;101858.97;5006538;28;20073;-44
2022/01/01 01:47:13;;;;;;;297.77;213.30;;;;;;;25.00;42.18;101859.94;5005439;28;20041;-44
2022/01/01 01:49:43;;;;;;;289.45;208.50;;;;;;;24.99;42.54;101852.91;5006321;28;20038;-44
2022/01/01 01:52:15;;;;;;;305.98;222.40;;;;;;;25.00;42.65;101856.44;5006566;28;20108;-44
2022/01/01 01:54:44;;;;;;;288.48;214.68;;;;;;;24.98;42.39;101864.28;5004670;28;20025;-48
2022/01/01 01:57:13;;;;;;;306.30;220.23;;;;;;;25.03;42.43;101857.38;5006275;28;20038;-44
2022/01/01 01:59:42;;;;;;;302.23;218.65;;;;;;;25.01;42.25;101861.72;5006473;28;20030;-44
2022/01/01 02:02:11;;;;;;;295.58;216.05;;;;;;;24.91;42.54;101859.75;5004521;28;20495;-44
2022/01/01 02:04:40;;;;;;;304.83;221.63;;;;;;;24.93;42.79;101865.91;5005641;28;20030;-52
2022/01/01 02:07:09;;;;;;;295.90;222.50;;;;;;;24.92;42.52;101858.88;5005581;28;20030;-52
2022/01/01 02:09:38;;;;;;;296.15;216.98;;;;;;;24.91;42.68;101857.13;5004914;28;20383;-53
2022/01/01 02:12:08;;;;;;;301.98;221.25;;;;;;;24.94;42.50;101858.91;5005767;28;20156;-44
2022/01/01 02:17:34;;;;;;;297.13;222.95;;;;;;;24.94;42.55;101858.91;4998087;28;20910;-46
2022/01/01 02:20:10;;;;;;;308.42;225.77;;;;;;;24.92;42.45;101863.22;5005637;28;20072;-47
2022/01/01 02:22:46;;;;;;;306.42;227.27;;;;;;;24.92;42.51;101876.34;5005846;28;20040;-44
2022/01/01 02:25:16;;;;;;;305.02;229.10;;;;;;;24.80;42.64;101869.97;5005504;28;20424;-43
2022/01/01 02:27:45;;;;;;;308.30;228.90;;;;;;;24.81;42.84;101863.00;5005339;28;20037;-44
2022/01/01 02:30:15;;;;;;;294.52;219.65;;;;;;;24.88;42.80;101863.19;5005327;28;20746;-50
2022/01/01 02:32:44;;;;;;;316.40;230.73;;;;;;;24.83;42.54;101846.44;5005431;28;20116;-51
2022/01/01 02:35:15;;;;;;;306.30;222.15;;;;;;;24.90;42.72;101859.72;5005186;28;20033;-44
2022/01/01 02:37:44;;;;;;;304.85;222.57;;;;;;;24.85;42.79;101847.38;5005350;28;20036;-49
2022/01/01 02:40:13;;;;;;;308.90;228.20;;;;;;;24.89;42.44;101845.69;5005287;28;20282;-43
2022/01/01 02:42:43;;;;;;;304.10;221.52;;;;;;;24.91;42.42;101841.38;5005084;28;20030;-47
2022/01/01 02:45:12;;;;;;;305.85;224.85;;;;;;;24.92;42.63;101842.25;5005402;28;20033;-44
2022/01/01 02:47:41;;;;;;;304.42;223.35;;;;;;;24.89;42.54;101843.06;5004962;28;20034;-46
2022/01/01 02:50:11;;;;;;;322.00;231.73;;;;;;;24.88;42.64;101843.91;5005258;28;20049;-50
2022/01/01 02:52:40;;;;;;;313.55;227.65;;;;;;;24.82;42.55;101843.78;5004853;28;20467;-44
2022/01/01 02:55:09;;;;;;;297.80;224.30;;;;;;;24.85;42.58;101836.88;5005134;28;20141;-44
2022/01/01 02:57:37;;;;;;;306.00;224.32;;;;;;;24.90;42.42;101836.97;5005200;28;20363;-44
2022/01/01 03:00:07;;;;;;;301.35;225.25;;;;;;;24.84;42.36;101836.81;5004966;28;20530;-44
2022/01/01 03:02:35;;;;;;;315.95;228.63;;;;;;;24.88;42.43;101822.91;5004831;28;20454;-44
2022/01/01 03:05:04;;;;;;;291.08;213.82;;;;;;;24.82;42.34;101821.03;5004666;28;20033;-45
2022/01/01 03:07:35;;;;;;;285.52;211.30;;;;;;;24.84;42.32;101821.06;5004687;28;20065;-50
2022/01/01 03:10:04;;;;;;;295.00;214.15;;;;;;;24.80;42.29;101814.88;5004904;28;20034;-44
2022/01/01 03:12:33;;;;;;;283.08;211.30;;;;;;;24.77;42.59;101801.66;5004878;28;21176;-52
2022/01/01 03:15:01;;;;;;;300.60;215.88;;;;;;;24.83;42.50;101803.53;5004616;28;20030;-44
2022/01/01 03:17:30;;;;;;;292.67;211.52;;;;;;;24.75;42.76;101802.50;5003195;28;20030;-44
2022/01/01 03:19:58;;;;;;;290.30;212.75;;;;;;;24.77;42.54;101809.53;5003359;28;20472;-48
2022/01/01 03:22:28;;;;;;;287.77;216.98;;;;;;;24.76;42.56;101792.03;5003163;28;20119;-48
2022/01/01 03:24:57;;;;;;;292.48;215.18;;;;;;;24.82;42.08;101791.31;5002845;28;20058;-51
2022/01/01 03:27:25;;;;;;;288.10;216.40;;;;;;;24.79;42.58;101789.47;5003131;28;20057;-50
2022/01/01 03:29:53;;;;;;;300.98;220.50;;;;;;;24.72;42.59;101796.31;5004084;28;20030;-51
2022/01/01 03:32:22;;;;;;;309.25;223.18;;;;;;;24.73;42.87;101792.84;5004718;28;20116;-43
2022/01/01 03:34:52;;;;;;;294.33;218.57;;;;;;;24.79;42.41;101780.72;5004671;28;20053;-43
2022/01/01 03:37:20;;;;;;;292.45;219.23;;;;;;;24.78;42.27;101794.72;5004216;28;20034;-49
2022/01/01 03:39:49;;;;;;;306.40;225.75;;;;;;;24.79;42.62;101796.47;5004459;28;20034;-46
2022/01/01 03:42:18;;;;;;;301.15;224.02;;;;;;;24.80;42.23;101779.88;5004400;28;20026;-43
2022/01/01 03:44:46;;;;;;;295.70;216.43;;;;;;;24.76;42.53;101778.03;5003885;28;20062;-44
2022/01/01 03:47:15;;;;;;;287.42;211.30;;;;;;;24.76;42.26;101791.16;5004237;28;20022;-43
2022/01/01 03:49:44;;;;;;;290.67;214.70;;;;;;;24.72;42.63;101783.22;5004238;28;20040;-43
2022/01/01 03:52:13;;;;;;;299.23;213.93;;;;;;;24.72;42.72;101784.97;5004316;28;20029;-50
2022/01/01 03:54:42;;;;;;;296.35;219.15;;;;;;;24.70;42.35;101784.03;5003971;28;20124;-44
2022/01/01 03:57:11;;;;;;;301.63;223.50;;;;;;;24.68;42.40;101783.06;5003985;28;20037;-43
2022/01/01 03:59:39;;;;;;;301.98;218.43;;;;;;;24.65;42.43;101770.78;5004156;28;20038;-47
2022/01/01 04:02:08;;;;;;;285.27;209.20;;;;;;;24.72;42.42;101777.97;5004008;28;20045;-44
2022/01/01 04:04:36;;;;;;;293.83;209.07;;;;;;;24.66;42.34;101769.91;5004092;28;20038;-49
2022/01/01 04:07:05;;;;;;;290.17;209.18;;;;;;;24.62;42.23;101778.56;5003789;28;20604;-45
2022/01/01 04:09:33;;;;;;;279.83;203.35;;;;;;;24.69;42.41;101756.88;5004037;28;20475;-43
2022/01/01 04:12:02;;;;;;;276.35;204.55;;;;;;;24.64;42.43;101761.13;5004319;28;20030;-44
2022/01/01 04:14:31;;;;;;;267.25;198.30;;;;;;;24.59;42.61;101754.91;5004225;28;20406;-43
2022/01/01 04:16:59;;;;;;;275.80;200.48;;;;;;;24.63;42.31;101756.75;5003999;28;20030;-43
2022/01/01 04:19:38;;;;;;;274.05;200.50;;;;;;;24.63;42.09;101759.38;5003873;28;20073;-43
2022/01/01 04:22:12;;;;;;;273.08;200.05;;;;;;;24.56;42.58;101773.19;5003737;28;20044;-43
2022/01/01 04:24:42;;;;;;;270.13;199.05;;;;;;;24.59;42.46;101762.75;5003779;28;20386;-43
2022/01/01 04:27:10;;;;;;;281.80;199.90;;;;;;;24.61;42.29;101774.19;5003949;28;20034;-43
2022/01/01 04:29:41;;;;;;;278.13;202.65;;;;;;;24.62;42.22;101769.81;5004022;28;20037;-43
2022/01/01 04:32:09;;;;;;;274.63;203.98;;;;;;;24.61;42.43;101755.81;5003919;28;20038;-44
2022/01/01 04:34:37;;;;;;;281.60;213.20;;;;;;;24.55;42.42;101759.19;5002584;28;20475;-44
2022/01/01 04:37:12;;;;;;;287.42;210.98;;;;;;;24.50;42.80;101747.69;5003131;28;20869;-43
2022/01/01 04:39:40;;;;;;;275.42;204.35;;;;;;;24.57;42.66;101743.47;5003370;28;20127;-45
2022/01/01 04:42:09;;;;;;;280.40;206.27;;;;;;;24.54;42.58;101748.66;5002581;28;20029;-44
2022/01/01 04:44:37;;;;;;;282.20;208.25;;;;;;;24.60;42.43;101748.78;5003649;28;20042;-44
2022/01/01 04:47:06;;;;;;;291.13;212.32;;;;;;;24.53;42.88;101744.25;5002090;28;20841;-47
2022/01/01 04:49:34;;;;;;;290.10;215.40;;;;;;;24.50;42.76;101759.91;5002997;28;20785;-45
2022/01/01 04:52:04;;;;;;;295.17;214.02;;;;;;;24.49;43.08;101760.78;5003947;28;20030;-43
2022/01/01 04:54:34;;;;;;;294.38;213.57;;;;;;;24.55;42.88;101763.53;5003785;28;20029;-43
2022/01/01 04:57:02;;;;;;;300.25;223.40;;;;;;;24.62;42.46;101762.84;5003712;28;20026;-44
2022/01/01 04:59:31;;;;;;;315.92;226.18;;;;;;;24.55;42.95;101755.66;5003720;28;20825;-45
2022/01/01 05:01:59;;;;;;;320.67;235.13;;;;;;;24.55;43.08;101756.56;5003022;28;20057;-45
2022/01/01 05:04:28;;;;;;;314.83;233.30;;;;;;;24.51;43.16;101736.34;5003283;28;20041;-44
2022/01/01 05:06:56;;;;;;;318.80;231.50;;;;;;;24.56;43.13;101739.97;5002176;28;20034;-44
2022/01/01 05:09:28;;;;;;;314.10;233.40;;;;;;;24.60;43.08;101742.66;5003578;28;20045;-50
2022/01/01 05:11:56;;;;;;;324.75;237.27;;;;;;;24.55;43.27;101729.44;5007078;28;20034;-43
2022/01/01 05:14:25;;;;;;;319.75;237.35;;;;;;;24.52;42.85;101719.78;5006659;28;20030;-44
2022/01/01 05:16:53;;;;;;;316.02;233.73;;;;;;;24.55;42.73;101717.22;5006981;28;20091;-47
2022/01/01 05:19:22;;;;;;;322.20;238.75;;;;;;;24.54;43.21;101719.78;5007043;28;20130;-44
2022/01/01 05:21:55;;;;;;;330.27;246.90;;;;;;;24.51;42.93;101714.47;5005517;28;20392;-47
2022/01/01 05:24:24;;;;;;;330.55;247.57;;;;;;;24.56;43.14;101723.34;5005432;28;20049;-44
2022/01/01 05:26:52;;;;;;;342.13;249.93;;;;;;;24.53;42.94;101711.06;5006738;28;20033;-44
2022/01/01 05:29:20;;;;;;;336.02;246.05;;;;;;;24.54;43.19;101702.34;5006814;28;20045;-47
2022/01/01 05:31:49;;;;;;;339.90;253.43;;;;;;;24.48;43.48;101703.94;5006724;28;20033;-45
2022/01/01 05:34:18;;;;;;;344.20;256.75;;;;;;;24.33;43.21;101683.47;5006327;28;20461;-46
2022/01/01 05:36:46;;;;;;;345.50;258.38;;;;;;;24.49;43.42;101703.97;5006417;28;20037;-44
2022/01/01 05:39:13;;;;;;;357.23;263.70;;;;;;;24.47;43.28;101699.53;5006620;28;20033;-44
2022/01/01 05:41:41;;;;;;;368.23;271.42;;;;;;;24.48;43.67;101738.03;5006334;28;20107;-44
2022/01/01 05:44:09;;;;;;;333.38;251.50;;;;;;;24.53;43.05;101718.03;5006543;28;20061;-44
2022/01/01 05:46:38;;;;;;;360.80;268.80;;;;;;;24.49;43.37;101709.19;5006479;28;20320;-44
2022/01/01 05:49:06;;;;;;;360.08;270.17;;;;;;;24.45;43.39;101714.34;5006441;28;20041;-44
2022/01/01 05:51:35;;;;;;;372.42;275.80;;;;;;;24.46;43.93;101722.25;5006421;28;20057;-46
2022/01/01 05:54:03;;;;;;;375.52;277.08;;;;;;;24.50;43.77;101710.97;5021946;28;20065;-48
2022/01/01 05:56:32;;;;;;;363.20;271.00;;;;;;;24.54;43.61;101699.72;5026114;28;20519;-44
2022/01/01 05:59:00;;;;;;;371.38;274.13;;;;;;;24.50;43.65;101705.72;5024530;28;20033;-44
2022/01/01 06:01:29;;;;;;;371.58;277.13;;;;;;;24.53;43.53;101705.81;5025502;28;20037;-44
2022/01/01 06:03:58;;;;;;;366.15;271.25;;;;;;;24.55;43.52;101693.63;5025454;28;20050;-44
2022/01/01 06:06:26;;;;;;;363.35;273.17;;;;;;;24.55;43.53;101713.69;5025750;28;20060;-52
2022/01/01 06:08:55;;;;;;;376.55;282.77;;;;;;;24.49;43.53;101682.97;5025848;28;20061;-43
2022/01/01 06:11:23;;;;;;;364.45;271.23;;;;;;;24.55;43.73;101690.09;5025927;28;20039;-48
2022/01/01 06:13:52;;;;;;;365.95;266.83;;;;;;;24.40;43.70;101688.03;5025478;28;20090;-44
2022/01/01 06:16:20;;;;;;;368.95;279.35;;;;;;;24.51;43.63;101698.72;5025387;28;20025;-44
2022/01/01 06:18:49;;;;;;;370.05;277.50;;;;;;;24.51;43.53;101720.63;5025407;28;20865;-50
2022/01/01 06:21:17;;;;;;;373.95;278.98;;;;;;;24.53;43.89;101725.88;5024846;28;20029;-48
2022/01/01 06:23:46;;;;;;;375.67;283.83;;;;;;;24.54;43.74;101731.19;5025394;28;20072;-44
2022/01/01 06:26:15;;;;;;;384.65;286.73;;;;;;;24.51;43.85;101727.59;5025635;28;20036;-47
2022/01/01 06:28:44;;;;;;;380.80;287.40;;;;;;;24.56;43.56;101731.22;5025537;28;20103;-44
2022/01/01 06:31:12;;;;;;;389.95;292.40;;;;;;;24.52;43.63;101732.88;5025287;28;20120;-44
2022/01/01 06:33:41;;;;;;;398.55;301.38;;;;;;;24.52;44.05;101739.84;5023655;28;20053;-45
2022/01/01 06:36:12;;;;;;;382.13;290.05;;;;;;;24.50;43.73;101731.97;5025053;28;20080;-47
2022/01/01 06:38:42;;;;;;;364.40;274.67;;;;;;;24.54;43.24;101720.69;5025195;28;20491;-44
2022/01/01 06:41:10;;;;;;;372.02;281.95;;;;;;;24.53;43.40;101724.16;5023748;28;20395;-44
2022/01/01 06:43:39;;;;;;;378.48;286.40;;;;;;;24.49;43.87;101727.56;5024968;28;20903;-44
2022/01/01 06:46:08;;;;;;;379.23;282.90;;;;;;;24.53;43.67;101732.03;5024986;28;20034;-43
2022/01/01 06:48:37;;;;;;;381.70;287.65;;;;;;;24.46;44.09;101724.00;5025245;28;20034;-45
2022/01/01 06:51:05;;;;;;;371.67;283.63;;;;;;;24.50;43.86;101729.34;5024776;28;20482;-46
2022/01/01 06:53:34;;;;;;;381.30;283.77;;;;;;;24.49;43.59;101739.81;5024872;28;20036;-46
2022/01/01 06:56:05;;;;;;;381.00;288.75;;;;;;;24.49;43.91;101751.16;5024488;28;20029;-45
2022/01/01 06:58:35;;;;;;;386.88;294.02;;;;;;;24.39;43.91;101750.06;5024495;28;20506;-44
2022/01/01 07:01:04;;;;;;;381.83;282.00;;;;;;;24.52;43.97;101739.84;5024436;28;20037;-43
2022/01/01 07:03:33;;;;;;;388.00;285.50;;;;;;;24.43;43.77;101743.16;5023811;28;20104;-48
2022/01/01 07:06:02;;;;;;;389.23;290.25;;;;;;;24.46;44.25;101763.34;5023631;28;20025;-44
2022/01/01 07:08:30;;;;;;;388.02;293.98;;;;;;;24.41;44.28;101771.06;5024071;28;20022;-44
2022/01/01 07:10:59;;;;;;;398.23;296.20;;;;;;;24.43;43.94;101770.28;5024400;28;20048;-45
2022/01/01 07:13:27;;;;;;;397.38;298.25;;;;;;;24.39;44.26;101760.56;5024435;28;20034;-50
2022/01/01 07:15:56;;;;;;;389.52;297.13;;;;;;;24.40;44.02;101767.56;5024441;28;20036;-46
2022/01/01 07:18:24;;;;;;;388.27;294.15;;;;;;;24.40;44.59;101780.69;5024550;28;20112;-50
2022/01/01 07:20:53;;;;;;;397.73;304.38;;;;;;;24.48;44.10;101785.25;5022848;28;20035;-44
2022/01/01 07:23:22;;;;;;;401.60;304.92;;;;;;;24.49;44.16;101797.50;5022775;28;20044;-46
2022/01/01 07:25:51;;;;;;;398.65;301.90;;;;;;;24.42;44.00;101785.94;5023806;28;20425;-44
2022/01/01 07:28:20;;;;;;;397.90;300.48;;;;;;;24.45;44.43;101814.00;5024458;28;20069;-44
2022/01/01 07:30:48;;;;;;;401.83;305.20;;;;;;;24.39;44.33;101780.66;5024525;28;20040;-45
2022/01/01 07:33:17;;;;;;;399.33;304.92;;;;;;;24.43;44.31;101798.22;5023625;28;20038;-49
2022/01/01 07:35:46;;;;;;;403.77;304.80;;;;;;;24.50;44.34;101800.16;5024413;28;20128;-44
2022/01/01 07:38:15;;;;;;;404.42;305.85;;;;;;;24.33;44.42;101789.25;5022875;28;20037;-43
2022/01/01 07:40:43;;;;;;;392.83;300.30;;;;;;;24.41;43.97;101784.19;5023923;28;20029;-44
2022/01/01 07:43:13;;;;;;;404.52;301.50;;;;;;;24.31;44.62;101803.16;5023808;28;20026;-44
2022/01/01 07:45:43;;;;;;;404.17;307.83;;;;;;;24.34;44.61;101782.28;5024137;28;20308;-45
2022/01/01 07:48:12;;;;;;;406.63;309.63;;;;;;;24.40;44.64;101806.91;5022510;28;20025;-47
2022/01/01 07:50:41;;;;;;;399.52;309.73;;;;;;;24.37;44.30;101814.69;5023845;28;20041;-44
2022/01/01 07:53:10;;;;;;;410.48;311.17;;;;;;;24.38;44.45;101810.34;5024007;28;20037;-43
2022/01/01 07:55:38;;;;;;;413.42;313.73;;;;;;;24.40;44.24;101813.91;5023945;28;20030;-45
2022/01/01 07:58:08;;;;;;;412.02;317.50;;;;;;;24.17;44.41;101787.09;5023910;28;20033;-45
2022/01/01 08:00:36;;;;;;;408.08;311.58;;;;;;;24.32;44.47;101832.06;5024010;28;20163;-44
2022/01/01 08:03:05;;;;;;;398.95;300.02;;;;;;;24.40;44.22;101832.25;5023429;28;20141;-44
2022/01/01 08:05:38;;;;;;;407.00;315.15;;;;;;;24.32;44.99;101821.59;5023943;28;20081;-43
2022/01/01 08:08:07;;;;;;;402.60;304.60;;;;;;;24.29;44.48;101837.22;5023910;28;20036;-44
2022/01/01 08:10:37;;;;;;;402.67;307.83;;;;;;;24.14;45.11;101832.47;5022398;28;20030;-44
2022/01/01 08:13:09;;;;;;;402.88;305.55;;;;;;;24.20;44.86;101836.97;5023859;28;20562;-48
2022/01/01 08:15:38;;;;;;;406.80;304.83;;;;;;;24.30;44.91;101832.88;5023627;28;20565;-45
2022/01/01 08:18:06;;;;;;;399.35;305.83;;;;;;;24.15;44.60;101836.00;5023613;28;20026;-44
2022/01/01 08:20:35;;;;;;;396.15;302.67;;;;;;;24.11;44.84;101835.00;5023377;28;20025;-44
2022/01/01 08:23:03;;;;;;;409.48;310.10;;;;;;;24.17;45.24;101836.91;5023624;28;20056;-44
2022/01/01 08:25:32;;;;;;;412.23;309.88;;;;;;;24.05;45.08;101833.13;5023588;28;20062;-47
2022/01/01 08:28:00;;;;;;;399.85;305.75;;;;;;;24.11;45.10;101849.00;5023571;28;20501;-46
2022/01/01 08:30:28;;;;;;;397.88;306.27;;;;;;;24.14;45.15;101844.72;5023306;28;20033;-44
2022/01/01 08:33:01;;;;;;;401.20;302.35;;;;;;;24.09;45.05;101850.72;5023399;28;20044;-44
2022/01/01 08:35:32;;;;;;;406.35;312.23;;;;;;;24.09;45.01;101861.19;5022150;28;20032;-46
2022/01/01 08:38:01;;;;;;;416.63;311.95;;;;;;;24.07;45.43;101844.53;5023391;28;20030;-47
2022/01/01 08:40:30;;;;;;;405.05;305.95;;;;;;;24.18;45.37;101854.41;5023449;28;20030;-47
2022/01/01 08:42:58;;;;;;;407.23;310.30;;;;;;;24.14;45.24;101850.81;5023176;28;20032;-44
2022/01/01 08:45:26;;;;;;;416.58;315.30;;;;;;;24.15;45.17;101849.09;5026825;28;20033;-44
2022/01/01 08:47:55;;;;;;;414.42;313.35;;;;;;;24.18;45.35;101841.28;5027301;28;20029;-44
2022/01/01 08:50:23;;;;;;;404.98;309.30;;;;;;;24.18;45.06;101838.66;5027318;28;20033;-44
2022/01/01 08:52:51;;;;;;;415.77;314.95;;;;;;;24.14;45.05;101863.06;5025949;28;20087;-44
2022/01/01 08:55:19;;;;;;;409.17;312.63;;;;;;;24.21;45.10;101844.91;5027156;28;20032;-44
2022/01/01 08:57:48;;;;;;;405.13;309.02;;;;;;;24.29;45.16;101847.72;5026983;28;20096;-44
2022/01/01 09:00:15;;;;;;;404.80;306.08;;;;;;;24.31;44.97;101842.50;5027125;28;20033;-47
2022/01/01 09:02:44;;;;;;;410.20;312.15;;;;;;;24.32;44.95;101837.31;5026888;28;20048;-45
2022/01/01 09:05:13;;;;;;;419.48;315.25;;;;;;;24.30;44.92;101856.47;5026806;28;20463;-47
2022/01/01 09:07:42;;;;;;;409.77;310.02;;;;;;;24.29;45.02;101839.84;5011123;28;20037;-44
2022/01/01 09:10:10;;;;;;;409.35;313.73;;;;;;;24.37;45.10;101837.44;5007069;28;20041;-43
2022/01/01 09:12:39;;;;;;;418.73;319.88;;;;;;;24.33;45.10;101846.94;5026127;28;20041;-44
2022/01/01 09:15:08;;;;;;;404.80;311.88;;;;;;;24.37;44.97;101867.16;5026709;28;20067;-47
2022/01/01 09:17:36;;;;;;;414.17;314.48;;;;;;;24.43;45.17;101846.34;5026426;28;20029;-46
2022/01/01 09:20:05;;;;;;;419.52;320.00;;;;;;;24.41;45.13;101853.28;5026712;28;20143;-44
2022/01/01 09:22:34;;;;;;;420.48;317.52;;;;;;;24.39;45.16;101868.06;5026782;28;20044;-42
2022/01/01 09:25:02;;;;;;;410.02;312.40;;;;;;;24.46;44.95;101829.78;5018470;28;20072;-51
2022/01/01 09:27:31;;;;;;;411.02;311.17;;;;;;;24.48;44.62;101832.44;5006658;28;20072;-48
2022/01/01 09:30:00;;;;;;;409.08;314.08;;;;;;;24.50;44.85;101834.25;5018822;28;20115;-43
2022/01/01 09:32:29;;;;;;;409.45;313.35;;;;;;;24.38;45.45;101842.69;5026066;28;20029;-47
2022/01/01 09:34:58;;;;;;;375.55;277.30;;;;;;;24.50;44.29;101842.13;5023980;28;20037;-43
2022/01/01 09:37:27;;;;;;;390.65;302.58;;;;;;;24.51;44.55;101828.16;5026217;28;20029;-50
2022/01/01 09:39:57;;;;;;;407.55;304.25;;;;;;;24.53;45.00;101825.56;5026349;28;20121;-42
2022/01/01 09:42:26;;;;;;;398.88;306.42;;;;;;;24.58;44.56;101835.31;5026311;28;20033;-49
2022/01/01 09:44:55;;;;;;;395.45;301.10;;;;;;;24.51;45.03;101829.88;5018763;28;20040;-43
2022/01/01 09:47:23;;;;;;;409.45;310.88;;;;;;;24.47;44.90;101831.56;5014642;28;20468;-48
2022/01/01 09:49:52;;;;;;;404.55;309.33;;;;;;;24.45;45.27;101843.72;5006120;28;20104;-43
2022/01/01 09:52:21;;;;;;;392.63;299.30;;;;;;;24.57;44.77;101833.53;4988964;28;20061;-46
2022/01/01 09:54:49;;;;;;;403.50;302.00;;;;;;;24.53;44.92;101817.69;5006494;28;20033;-45
2022/01/01 09:57:18;;;;;;;398.73;298.27;;;;;;;24.55;44.94;101813.38;5005686;28;20037;-43
2022/01/01 09:59:47;;;;;;;396.92;302.65;;;;;;;24.53;45.28;101820.31;5006352;28;20034;-43
2022/01/01 10:02:15;;;;;;;397.30;293.20;;;;;;;24.58;44.85;101816.94;5004660;28;20519;-49
2022/01/01 10:04:52;;;;;;;399.20;299.73;;;;;;;24.50;45.38;101820.22;5005862;28;20041;-43
2022/01/01 10:07:29;;;;;;;397.33;297.48;;;;;;;24.63;44.76;101827.56;5005856;28;20041;-43
2022/01/01 10:09:57;;;;;;;393.92;293.02;;;;;;;24.70;44.89;101837.38;5005976;28;20046;-46
2022/01/01 10:12:45;;;;;;;398.45;296.90;;;;;;;24.66;44.78;101835.50;5006880;28;20030;-54
2022/01/01 10:15:14;;;;;;;394.42;294.95;;;;;;;24.67;44.83;101846.91;5019120;28;20041;-46
2022/01/01 10:17:43;;;;;;;400.45;299.15;;;;;;;24.66;45.14;101860.84;5005677;28;20087;-45
2022/01/01 10:20:12;;;;;;;392.00;286.33;;;;;;;24.65;44.95;101869.56;5005982;28;20030;-43
2022/01/01 10:22:40;;;;;;;389.33;289.80;;;;;;;24.68;45.32;101852.16;5005299;28;20030;-43
2022/01/01 10:28:01;;;;;;;385.17;284.77;;;;;;;24.60;45.41;101868.56;5001551;28;20487;-48
2022/01/01 10:30:40;;;;;;;389.40;280.98;;;;;;;24.62;45.10;101859.00;5005272;28;20034;-44
2022/01/01 10:33:11;;;;;;;383.40;279.02;;;;;;;24.63;45.18;101860.78;5005336;28;20035;-54
2022/01/01 10:38:53;;;;;;;374.65;276.05;;;;;;;24.69;45.22;101882.81;4982751;28;20044;-43
2022/01/01 10:41:22;;;;;;;386.02;276.45;;;;;;;24.62;45.09;101866.88;4983246;28;20054;-48
2022/01/01 10:43:52;;;;;;;367.73;269.85;;;;;;;24.65;44.85;101866.94;4982986;28;20488;-46
2022/01/01 10:46:21;;;;;;;361.25;261.25;;;;;;;24.62;44.93;101874.75;4983290;28;20507;-45
2022/01/01 10:51:21;;;;;;;336.80;247.27;;;;;;;24.54;45.21;101853.56;4983466;28;20117;-45
2022/01/01 10:54:02;;;;;;;344.60;244.68;;;;;;;24.53;45.34;101846.53;4966730;28;20066;-44
2022/01/01 10:56:38;;;;;;;356.85;248.98;;;;;;;24.59;45.00;101851.97;4983261;28;20053;-44
2022/01/01 10:59:09;;;;;;;343.10;246.32;;;;;;;24.60;45.25;101847.56;4966350;28;20039;-42
2022/01/01 11:01:44;;;;;;;339.05;244.52;;;;;;;24.58;45.26;101855.44;4982768;28;20057;-42
2022/01/01 11:04:11;;;;;;;;;;;;;;;24.82;44.45;101852.53;4982398;28;20050;-42
2022/01/01 11:06:41;;;;;;;334.35;248.27;;;;;;;24.72;44.56;101859.31;4966573;28;19917;-42
2022/01/01 11:09:15;;;;;;;337.75;245.05;;;;;;;24.69;44.56;101848.69;4989621;28;20498;-43
2022/01/01 11:11:44;;;;;;;344.33;245.43;;;;;;;24.74;44.73;101846.19;5005006;28;20370;-43
2022/01/01 11:14:13;;;;;;;331.75;243.02;;;;;;;24.69;44.66;101832.06;5004944;28;20072;-43